ADDS METAR Data INFO
IDs: Format: Raw Decoded Include TAF

Data at: 0151 UTC 17 Oct 2017

KLWM 170054Z 34006KT 10SM CLR 08/02 A3014 RMK AO2 SLP205 T00830017
KLWM 162354Z 34009KT 10SM BKN047 10/02 A3010 RMK AO2 SLP194 T01000022 10133 20100 53028
KLWM 162254Z 31008G15KT 10SM CLR 11/02 A3007 RMK AO2 SLP183 T01060022
KLWM 162154Z 33007G17KT 10SM CLR 12/03 A3004 RMK AO2 SLP172 T01170028
KLWM 162054Z 32009KT 10SM CLR 12/03 A3002 RMK AO2 SLP166 T01220033 53018
KLWM 161954Z 32009KT 10SM CLR 13/03 A3000 RMK AO2 SLP157 T01280033
KLWM 161854Z 31008KT 10SM CLR 13/04 A2997 RMK AO2 SLP147 T01280039
KLWM 161754Z 33010KT 10SM CLR 13/04 A2997 RMK AO2 SLP148 60000 T01280044 10178 20128 50010
KLWM 161654Z 31009G16KT 10SM CLR 13/04 A2999 RMK AO2 PRESRR SLP153 T01330044
KLWM 161554Z 30009G16KT 10SM CLR 13/04 A2998 RMK AO2 SLP151 T01330044
KLWM 161454Z 32010KT 10SM CLR 13/06 A2994 RMK AO2 SLP138 60000 T01330056 51035
KLWM 161354Z 33010G19KT 10SM FEW040 14/06 A2992 RMK AO2 SLP131 T01440061
KLWM 161254Z 33012G20KT 10SM BKN039 16/07 A2988 RMK AO2 RAB19E29 SLP116 P0000 T01560072
KLWM 161154Z 30007KT 10SM CLR 18/09 A2984 RMK AO2 SLP103 60000 T01780094 10217 20172 53025
KLWM 161054Z 26007KT 10SM CLR 18/10 A2980 RMK AO2 SLP090 T01780100
KLWM 160954Z AUTO 26010G18KT 10SM OVC110 19/11 A2979 RMK AO2 SLP088 T01890111
KLWM 160854Z AUTO 25011G16KT 10SM BKN060 OVC110 19/13 A2976 RMK AO2 SLP077 60000 T01940128 53006
KLWM 160754Z AUTO 26009KT 10SM OVC049 20/13 A2974 RMK AO2 SLP070 T02000133
KLWM 160654Z AUTO 25009KT 10SM FEW055 OVC090 21/16 A2973 RMK AO2 RAB01E13 SLP065 P0000 T02060161
KLWM 160627Z AUTO 23007KT 10SM FEW018 BKN046 OVC055 21/17 A2974 RMK AO2 RAB01E13 P0000 T02110167
KLWM 160554Z AUTO 26010G19KT 10SM BKN023 BKN028 OVC038 22/17 A2974 RMK AO2 RAE35 SLP071 P0000 60000 T02170167 10222 20217 53014
KLWM 160454Z AUTO 23011G18KT 10SM -RA OVC029 22/17 A2972 RMK AO2 RAB52 SLP063 P0000 T02220167 402500156
KLWM 160417Z AUTO 23012G23KT 10SM BKN027 BKN075 OVC095 22/17 A2972 RMK AO2 T02220167
KLWM 160354Z AUTO 22012G20KT 10SM FEW080 BKN095 22/17 A2971 RMK AO2 SLP058 T02170167
KLWM 160338Z AUTO 21014G22KT 10SM SCT023 BKN090 22/17 A2970 RMK AO2 T02170167
KLWM 160308Z AUTO 22013KT 10SM BKN023 22/17 A2971 RMK AO2 T02170167
KLWM 160254Z AUTO 22011KT 10SM SCT022 22/17 A2970 RMK AO2 SLP058 T02170167 56006
KLWM 160210Z AUTO 21011G21KT 10SM SCT022 22/17 A2971 RMK AO2 T02170167
KLWM 160154Z 21010G18KT 10SM BKN023 22/17 A2971 RMK AO2 SLP060 T02170167
KLWM 160054Z 21010KT 10SM BKN021 22/17 A2971 RMK AO2 SLP060 T02170167
KLWM 152354Z 20010KT 10SM OVC021 22/17 A2972 RMK AO2 SLP064 T02170167 10250 20217 56019
KLWM 152314Z 21008G16KT 10SM BKN022 22/17 A2973 RMK AO2 T02220167
KLWM 152254Z 20012G19KT 10SM FEW022 22/17 A2974 RMK AO2 SLP069 T02220167
KLWM 152154Z 21010G17KT 10SM CLR 23/17 A2976 RMK AO2 SLP075 T02330167
KLWM 152054Z 22013G23KT 10SM FEW028 24/17 A2978 RMK AO2 PK WND 21026/1956 SLP082 T02440172 56031
KLWM 152001Z 22016G26KT 10SM SCT029 24/17 A2980 RMK AO2 PK WND 21026/1956 T02440172
KLWM 151954Z 22016G23KT 10SM BKN029 24/17 A2980 RMK AO2 SLP091 T02440172
KLWM 151854Z 21014G19KT 10SM OVC028 25/17 A2984 RMK AO2 SLP103 T02500172
KLWM 151844Z 20013KT 10SM BKN028 OVC033 24/17 A2985 RMK AO2 T02440172
KLWM 151831Z 22018G24KT 10SM OVC030 24/17 A2985 RMK AO2 T02440172
KLWM 151816Z 21017G21KT 10SM BKN029 24/17 A2986 RMK AO2 T02440172
KLWM 151754Z 22014G24KT 10SM BKN030 BKN034 24/17 A2987 RMK AO2 SLP114 T02390172 10250 20167 56033
KLWM 151750Z 21016G23KT 10SM BKN030 24/17 A2987 RMK AO2
KLWM 151654Z 21011G21KT 10SM BKN025 OVC031 23/17 A2991 RMK AO2 SLP129 T02330172
KLWM 151554Z 21010KT 10SM BKN024 OVC030 23/17 A2997 RMK AO2 SLP147 T02280172
KLWM 151543Z 21012G20KT 10SM FEW016 OVC023 22/17 A2997 RMK AO2 T02220167
KLWM 151454Z 20012G22KT 10SM BKN011 21/17 A3000 RMK AO2 SLP159 T02110167 58027
KLWM 151413Z 21010KT 10SM FEW006 20/17 A3002 RMK AO2 T02000167
KLWM 151354Z 20009KT 10SM BKN004 18/17 A3003 RMK AO2 CIG 003V007 SLP167 T01830167